Aviation Digital Data Service (ADDS)

Output produced by TAFs form (1718 UTC 21 November 2017)
found at http://aviationweather.gov/adds/tafs/
 
KEGE 211125Z 2112/2212 27010KT P6SM VCSH OVC050 
     FM211600 22005KT P6SM SCT050 BKN060 
     FM212100 24007KT P6SM FEW050 SCT200 
     FM220100 VRB03KT P6SM FEW080 SCT200 AMD LTD TO CLD VIS AND WIND TIL 211400